sensor_id;sensor_type;location;lat;lon;timestamp;pressure;altitude;pressure_sealevel;temperature;humidity
17362;BME280;8798;51.938;4.348;2022-09-23T00:00:15;101544.53;;;15.20;63.18
17362;BME280;8798;51.938;4.348;2022-09-23T00:02:44;101532.38;;;15.16;63.29
17362;BME280;8798;51.938;4.348;2022-09-23T00:05:14;101521.84;;;15.13;63.36
17362;BME280;8798;51.938;4.348;2022-09-23T00:07:42;101517.59;;;15.10;63.07
17362;BME280;8798;51.938;4.348;2022-09-23T00:10:09;101505.25;;;15.08;63.36
17362;BME280;8798;51.938;4.348;2022-09-23T00:12:37;101509.97;;;15.05;63.42
17362;BME280;8798;51.938;4.348;2022-09-23T00:15:06;101491.38;;;15.02;63.34
17362;BME280;8798;51.938;4.348;2022-09-23T00:17:36;101496.97;;;15.01;63.07
17362;BME280;8798;51.938;4.348;2022-09-23T00:20:04;101498.13;;;14.98;63.36
17362;BME280;8798;51.938;4.348;2022-09-23T00:22:32;101496.44;;;14.97;63.58
17362;BME280;8798;51.938;4.348;2022-09-23T00:25:01;101481.53;;;14.93;63.49
17362;BME280;8798;51.938;4.348;2022-09-23T00:27:28;101470.22;;;14.90;63.73
17362;BME280;8798;51.938;4.348;2022-09-23T00:29:56;101455.31;;;14.86;63.72
17362;BME280;8798;51.938;4.348;2022-09-23T00:32:24;101461.75;;;14.84;63.13
17362;BME280;8798;51.938;4.348;2022-09-23T00:34:53;101452.25;;;14.80;64.07
17362;BME280;8798;51.938;4.348;2022-09-23T00:37:21;101441.78;;;14.77;63.58
17362;BME280;8798;51.938;4.348;2022-09-23T00:39:49;101427.56;;;14.75;64.08
17362;BME280;8798;51.938;4.348;2022-09-23T00:42:19;101427.91;;;14.72;63.77
17362;BME280;8798;51.938;4.348;2022-09-23T00:44:53;101419.09;;;14.70;63.89
17362;BME280;8798;51.938;4.348;2022-09-23T00:47:33;101418.59;;;14.67;63.91
17362;BME280;8798;51.938;4.348;2022-09-23T00:50:21;101408.25;;;14.62;63.87
17362;BME280;8798;51.938;4.348;2022-09-23T00:52:53;101396.75;;;14.60;63.74
17362;BME280;8798;51.938;4.348;2022-09-23T00:55:41;101394.22;;;14.58;63.90
17362;BME280;8798;51.938;4.348;2022-09-23T00:58:13;101410.63;;;14.57;64.02
17362;BME280;8798;51.938;4.348;2022-09-23T01:00:50;101408.91;;;14.56;64.16
17362;BME280;8798;51.938;4.348;2022-09-23T01:03:25;101395.69;;;14.53;64.12
17362;BME280;8798;51.938;4.348;2022-09-23T01:06:13;101395.19;;;14.49;64.01
17362;BME280;8798;51.938;4.348;2022-09-23T01:08:53;101387.22;;;14.48;64.19
17362;BME280;8798;51.938;4.348;2022-09-23T01:11:39;101382.16;;;14.45;64.16
17362;BME280;8798;51.938;4.348;2022-09-23T01:14:25;101381.47;;;14.43;64.27
17362;BME280;8798;51.938;4.348;2022-09-23T01:17:12;101362.00;;;14.39;64.52
17362;BME280;8798;51.938;4.348;2022-09-23T01:23:27;101371.47;;;14.35;64.65
17362;BME280;8798;51.938;4.348;2022-09-23T01:26:12;101363.69;;;14.32;64.62
17362;BME280;8798;51.938;4.348;2022-09-23T01:29:06;101359.47;;;14.29;64.57
17362;BME280;8798;51.938;4.348;2022-09-23T01:31:48;101353.53;;;14.26;64.50
17362;BME280;8798;51.938;4.348;2022-09-23T01:34:27;101354.56;;;14.25;64.60
17362;BME280;8798;51.938;4.348;2022-09-23T01:37:05;101352.00;;;14.23;64.83
17362;BME280;8798;51.938;4.348;2022-09-23T01:39:43;101352.16;;;14.22;64.41
17362;BME280;8798;51.938;4.348;2022-09-23T01:42:25;101355.72;;;14.22;64.75
17362;BME280;8798;51.938;4.348;2022-09-23T01:45:05;101366.53;;;14.22;64.62
17362;BME280;8798;51.938;4.348;2022-09-23T01:47:46;101370.06;;;14.23;64.74
17362;BME280;8798;51.938;4.348;2022-09-23T01:50:29;101381.72;;;14.23;64.82
17362;BME280;8798;51.938;4.348;2022-09-23T01:53:25;101389.00;;;14.23;64.97
17362;BME280;8798;51.938;4.348;2022-09-23T01:56:04;101397.09;;;14.23;65.08
17362;BME280;8798;51.938;4.348;2022-09-23T01:58:44;101406.75;;;14.25;64.96
17362;BME280;8798;51.938;4.348;2022-09-23T02:01:22;101425.31;;;14.28;65.38
17362;BME280;8798;51.938;4.348;2022-09-23T02:04:06;101426.16;;;14.29;64.97
17362;BME280;8798;51.938;4.348;2022-09-23T02:06:42;101441.38;;;14.30;65.29
17362;BME280;8798;51.938;4.348;2022-09-23T02:09:23;101453.88;;;14.31;64.82
17362;BME280;8798;51.938;4.348;2022-09-23T02:12:04;101458.13;;;14.33;64.92
17362;BME280;8798;51.938;4.348;2022-09-23T02:14:52;101475.16;;;14.34;65.10
17362;BME280;8798;51.938;4.348;2022-09-23T02:17:30;101475.16;;;14.34;65.39
17362;BME280;8798;51.938;4.348;2022-09-23T02:20:04;101477.03;;;14.33;65.12
17362;BME280;8798;51.938;4.348;2022-09-23T02:22:49;101487.69;;;14.35;65.15
17362;BME280;8798;51.938;4.348;2022-09-23T02:25:25;101486.84;;;14.34;65.31
17362;BME280;8798;51.938;4.348;2022-09-23T02:28:04;101499.34;;;14.35;65.02
17362;BME280;8798;51.938;4.348;2022-09-23T02:30:45;101501.91;;;14.37;65.33
17362;BME280;8798;51.938;4.348;2022-09-23T02:33:34;101518.78;;;14.39;65.19
17362;BME280;8798;51.938;4.348;2022-09-23T02:39:11;101539.09;;;14.43;65.38
17362;BME280;8798;51.938;4.348;2022-09-23T02:41:46;101540.81;;;14.44;65.47
17362;BME280;8798;51.938;4.348;2022-09-23T02:44:23;101551.63;;;14.44;65.41
17362;BME280;8798;51.938;4.348;2022-09-23T02:46:51;101541.66;;;14.45;65.48
17362;BME280;8798;51.938;4.348;2022-09-23T02:49:21;101556.84;;;14.46;65.53
17362;BME280;8798;51.938;4.348;2022-09-23T02:51:53;101558.72;;;14.45;65.63
17362;BME280;8798;51.938;4.348;2022-09-23T02:54:29;101550.94;;;14.42;65.45
17362;BME280;8798;51.938;4.348;2022-09-23T02:57:03;101558.03;;;14.43;65.51
17362;BME280;8798;51.938;4.348;2022-09-23T02:59:41;101555.31;;;14.43;65.84
17362;BME280;8798;51.938;4.348;2022-09-23T03:02:42;101551.63;;;14.44;65.70
17362;BME280;8798;51.938;4.348;2022-09-23T03:05:52;101540.25;;;14.40;65.47
17362;BME280;8798;51.938;4.348;2022-09-23T03:08:35;101540.25;;;14.40;65.75
17362;BME280;8798;51.938;4.348;2022-09-23T03:11:13;101554.63;;;14.41;65.60
17362;BME280;8798;51.938;4.348;2022-09-23T03:13:57;101556.34;;;14.42;65.56
17362;BME280;8798;51.938;4.348;2022-09-23T03:16:42;101559.88;;;14.43;66.04
17362;BME280;8798;51.938;4.348;2022-09-23T03:19:34;101568.00;;;14.43;65.83
17362;BME280;8798;51.938;4.348;2022-09-23T03:22:15;101568.84;;;14.43;66.00
17362;BME280;8798;51.938;4.348;2022-09-23T03:25:02;101575.78;;;14.46;66.04
17362;BME280;8798;51.938;4.348;2022-09-23T03:27:34;101585.59;;;14.47;65.90
17362;BME280;8798;51.938;4.348;2022-09-23T03:30:12;101597.94;;;14.49;65.93
17362;BME280;8798;51.938;4.348;2022-09-23T03:32:44;101606.72;;;14.51;66.13
17362;BME280;8798;51.938;4.348;2022-09-23T03:35:13;101614.56;;;14.54;66.07
17362;BME280;8798;51.938;4.348;2022-09-23T03:37:46;101626.94;;;14.57;66.12
17362;BME280;8798;51.938;4.348;2022-09-23T03:40:36;101633.19;;;14.57;65.98
17362;BME280;8798;51.938;4.348;2022-09-23T03:43:13;101628.78;;;14.56;66.16
17362;BME280;8798;51.938;4.348;2022-09-23T03:45:41;101624.22;;;14.57;66.26
17362;BME280;8798;51.938;4.348;2022-09-23T03:48:09;101640.28;;;14.58;66.24
17362;BME280;8798;51.938;4.348;2022-09-23T03:50:42;101655.31;;;14.61;66.11
17362;BME280;8798;51.938;4.348;2022-09-23T03:53:11;101662.28;;;14.63;66.44
17362;BME280;8798;51.938;4.348;2022-09-23T03:55:42;101663.16;;;14.64;66.52
17362;BME280;8798;51.938;4.348;2022-09-23T03:58:11;101665.66;;;14.66;66.15
17362;BME280;8798;51.938;4.348;2022-09-23T04:00:41;101662.81;;;14.67;66.55
17362;BME280;8798;51.938;4.348;2022-09-23T04:03:12;101682.44;;;14.69;66.40
17362;BME280;8798;51.938;4.348;2022-09-23T04:05:51;101689.41;;;14.72;66.51
17362;BME280;8798;51.938;4.348;2022-09-23T04:08:24;101700.03;;;14.73;66.54
17362;BME280;8798;51.938;4.348;2022-09-23T04:11:03;101697.19;;;14.75;66.47
17362;BME280;8798;51.938;4.348;2022-09-23T04:13:31;101695.31;;;14.75;66.25
17362;BME280;8798;51.938;4.348;2022-09-23T04:16:02;101695.50;;;14.74;66.53
17362;BME280;8798;51.938;4.348;2022-09-23T04:18:31;101695.50;;;14.74;66.46
17362;BME280;8798;51.938;4.348;2022-09-23T04:21:01;101692.81;;;14.74;66.43
17362;BME280;8798;51.938;4.348;2022-09-23T04:23:36;101692.63;;;14.75;66.26
17362;BME280;8798;51.938;4.348;2022-09-23T04:26:11;101689.06;;;14.75;66.66
17362;BME280;8798;51.938;4.348;2022-09-23T04:28:41;101692.63;;;14.75;66.41
17362;BME280;8798;51.938;4.348;2022-09-23T04:31:12;101695.19;;;14.77;66.66
17362;BME280;8798;51.938;4.348;2022-09-23T04:33:41;101702.28;;;14.78;66.80
17362;BME280;8798;51.938;4.348;2022-09-23T04:36:11;101703.13;;;14.78;66.42
17362;BME280;8798;51.938;4.348;2022-09-23T04:38:44;101701.28;;;14.79;66.76
17362;BME280;8798;51.938;4.348;2022-09-23T04:41:19;101703.81;;;14.80;66.81
17362;BME280;8798;51.938;4.348;2022-09-23T04:43:57;101711.09;;;14.80;66.84
17362;BME280;8798;51.938;4.348;2022-09-23T04:46:40;101700.25;;;14.80;66.82
17362;BME280;8798;51.938;4.348;2022-09-23T04:49:31;101699.44;;;14.79;67.06
17362;BME280;8798;51.938;4.348;2022-09-23T04:51:59;101702.97;;;14.80;66.82
17362;BME280;8798;51.938;4.348;2022-09-23T04:54:31;101712.63;;;14.82;66.99
17362;BME280;8798;51.938;4.348;2022-09-23T04:57:00;101708.06;;;14.83;66.98
17362;BME280;8798;51.938;4.348;2022-09-23T04:59:31;101712.47;;;14.84;67.12
17362;BME280;8798;51.938;4.348;2022-09-23T05:02:02;101711.47;;;14.85;67.10
17362;BME280;8798;51.938;4.348;2022-09-23T05:04:30;101717.72;;;14.86;67.11
17362;BME280;8798;51.938;4.348;2022-09-23T05:07:01;101725.53;;;14.89;67.18
17362;BME280;8798;51.938;4.348;2022-09-23T05:09:31;101738.03;;;14.90;67.13
17362;BME280;8798;51.938;4.348;2022-09-23T05:12:03;101733.31;;;14.92;67.22
17362;BME280;8798;51.938;4.348;2022-09-23T05:14:31;101748.41;;;14.94;67.16
17362;BME280;8798;51.938;4.348;2022-09-23T05:17:01;101759.72;;;14.98;67.31
17362;BME280;8798;51.938;4.348;2022-09-23T05:19:33;101760.44;;;15.00;67.32
17362;BME280;8798;51.938;4.348;2022-09-23T05:22:01;101775.50;;;15.02;67.31
17362;BME280;8798;51.938;4.348;2022-09-23T05:24:32;101776.19;;;15.04;67.25
17362;BME280;8798;51.938;4.348;2022-09-23T05:26:59;101781.47;;;15.06;66.99
17362;BME280;8798;51.938;4.348;2022-09-23T05:29:33;101782.31;;;15.07;67.50
17362;BME280;8798;51.938;4.348;2022-09-23T05:32:01;101785.84;;;15.07;67.29
17362;BME280;8798;51.938;4.348;2022-09-23T05:34:30;101782.13;;;15.08;67.37
17362;BME280;8798;51.938;4.348;2022-09-23T05:37:01;101783.00;;;15.09;67.59
17362;BME280;8798;51.938;4.348;2022-09-23T05:39:29;101785.53;;;15.10;67.46
17362;BME280;8798;51.938;4.348;2022-09-23T05:42:01;101793.50;;;15.12;67.49
17362;BME280;8798;51.938;4.348;2022-09-23T05:44:45;101793.50;;;15.12;67.38
17362;BME280;8798;51.938;4.348;2022-09-23T05:47:31;101792.34;;;15.14;67.50
17362;BME280;8798;51.938;4.348;2022-09-23T05:50:05;101792.34;;;15.14;67.46
17362;BME280;8798;51.938;4.348;2022-09-23T05:52:38;101794.91;;;15.16;67.54
17362;BME280;8798;51.938;4.348;2022-09-23T05:55:13;101797.44;;;15.17;67.64
17362;BME280;8798;51.938;4.348;2022-09-23T05:57:42;101808.09;;;15.19;67.40
17362;BME280;8798;51.938;4.348;2022-09-23T06:00:16;101802.69;;;15.19;67.50
17362;BME280;8798;51.938;4.348;2022-09-23T06:02:48;101810.50;;;15.22;67.58
17362;BME280;8798;51.938;4.348;2022-09-23T06:05:22;101821.00;;;15.25;67.61
17362;BME280;8798;51.938;4.348;2022-09-23T06:07:53;101830.66;;;15.27;67.52
17362;BME280;8798;51.938;4.348;2022-09-23T06:10:23;101839.31;;;15.31;67.75
17362;BME280;8798;51.938;4.348;2022-09-23T06:13:01;101849.84;;;15.34;67.68
17362;BME280;8798;51.938;4.348;2022-09-23T06:15:33;101854.94;;;15.37;67.60
17362;BME280;8798;51.938;4.348;2022-09-23T06:18:01;101861.88;;;15.40;67.93
17362;BME280;8798;51.938;4.348;2022-09-23T06:20:32;101859.03;;;15.41;67.67
17362;BME280;8798;51.938;4.348;2022-09-23T06:23:04;101870.56;;;15.43;67.67
17362;BME280;8798;51.938;4.348;2022-09-23T06:25:42;101883.78;;;15.46;67.72
17362;BME280;8798;51.938;4.348;2022-09-23T06:28:12;101891.56;;;15.49;67.78
17362;BME280;8798;51.938;4.348;2022-09-23T06:30:43;101891.44;;;15.51;67.71
17362;BME280;8798;51.938;4.348;2022-09-23T06:33:13;101905.34;;;15.56;67.84
17362;BME280;8798;51.938;4.348;2022-09-23T06:35:54;101924.81;;;15.60;67.79
17362;BME280;8798;51.938;4.348;2022-09-23T06:38:32;101933.50;;;15.63;67.88
17362;BME280;8798;51.938;4.348;2022-09-23T06:41:02;101936.91;;;15.65;67.83
17362;BME280;8798;51.938;4.348;2022-09-23T06:43:32;101952.69;;;15.70;67.93
17362;BME280;8798;51.938;4.348;2022-09-23T06:46:03;101965.94;;;15.73;67.88
17362;BME280;8798;51.938;4.348;2022-09-23T06:48:32;101976.47;;;15.76;67.89
17362;BME280;8798;51.938;4.348;2022-09-23T06:51:04;101971.56;;;15.80;68.06
17362;BME280;8798;51.938;4.348;2022-09-23T06:54:13;101982.09;;;15.83;68.01
17362;BME280;8798;51.938;4.348;2022-09-23T06:56:42;101995.34;;;15.86;67.99
17362;BME280;8798;51.938;4.348;2022-09-23T06:59:13;101995.72;;;15.91;68.25
17362;BME280;8798;51.938;4.348;2022-09-23T07:01:53;102025.75;;;15.98;68.03
17362;BME280;8798;51.938;4.348;2022-09-23T07:04:42;102028.13;;;16.01;68.04
17362;BME280;8798;51.938;4.348;2022-09-23T07:07:21;102050.88;;;16.08;68.22
17362;BME280;8798;51.938;4.348;2022-09-23T07:09:51;102066.69;;;16.12;68.21
17362;BME280;8798;51.938;4.348;2022-09-23T07:12:24;102074.34;;;16.17;68.25
17362;BME280;8798;51.938;4.348;2022-09-23T07:14:53;102075.91;;;16.20;67.93
17362;BME280;8798;51.938;4.348;2022-09-23T07:17:26;102090.13;;;16.22;68.04
17362;BME280;8798;51.938;4.348;2022-09-23T07:19:54;102086.25;;;16.24;67.95
17362;BME280;8798;51.938;4.348;2022-09-23T07:22:32;102079.66;;;16.27;67.94
17362;BME280;8798;51.938;4.348;2022-09-23T07:25:02;102073.38;;;16.26;68.16
17362;BME280;8798;51.938;4.348;2022-09-23T07:27:33;102076.78;;;16.28;68.17
17362;BME280;8798;51.938;4.348;2022-09-23T07:30:02;102072.06;;;16.30;68.39
17362;BME280;8798;51.938;4.348;2022-09-23T07:32:33;102071.91;;;16.32;68.17
17362;BME280;8798;51.938;4.348;2022-09-23T07:35:13;102076.16;;;16.34;68.05
17362;BME280;8798;51.938;4.348;2022-09-23T07:37:42;102070.75;;;16.34;68.15
17362;BME280;8798;51.938;4.348;2022-09-23T07:40:10;102078.56;;;16.38;68.36
17362;BME280;8798;51.938;4.348;2022-09-23T07:42:38;102091.63;;;16.42;68.44
17362;BME280;8798;51.938;4.348;2022-09-23T07:45:07;102106.41;;;16.48;68.26
17362;BME280;8798;51.938;4.348;2022-09-23T07:47:36;102108.81;;;16.51;68.37
17362;BME280;8798;51.938;4.348;2022-09-23T07:50:06;102122.75;;;16.56;68.19
17362;BME280;8798;51.938;4.348;2022-09-23T07:52:34;102147.38;;;16.63;68.18
17362;BME280;8798;51.938;4.348;2022-09-23T07:55:03;102155.88;;;16.68;68.25
17362;BME280;8798;51.938;4.348;2022-09-23T07:57:32;102160.16;;;16.70;68.17
17362;BME280;8798;51.938;4.348;2022-09-23T08:00:00;102169.69;;;16.74;68.08
17362;BME280;8798;51.938;4.348;2022-09-23T08:02:28;102173.78;;;16.79;68.16
17362;BME280;8798;51.938;4.348;2022-09-23T08:04:58;102184.34;;;16.82;67.99
17362;BME280;8798;51.938;4.348;2022-09-23T08:07:26;102193.84;;;16.86;68.21
17362;BME280;8798;51.938;4.348;2022-09-23T08:09:54;102183.69;;;16.88;68.27
17362;BME280;8798;51.938;4.348;2022-09-23T08:12:23;102199.38;;;16.94;68.04
17362;BME280;8798;51.938;4.348;2022-09-23T08:15:11;102210.59;;;16.99;68.00
17362;BME280;8798;51.938;4.348;2022-09-23T08:17:44;102225.38;;;17.05;67.79
17362;BME280;8798;51.938;4.348;2022-09-23T08:20:20;102238.47;;;17.09;67.51
17362;BME280;8798;51.938;4.348;2022-09-23T08:23:13;102240.88;;;17.12;68.03
17362;BME280;8798;51.938;4.348;2022-09-23T08:25:44;102235.09;;;17.15;67.70
17362;BME280;8798;51.938;4.348;2022-09-23T08:28:24;102245.66;;;17.18;67.67
17362;BME280;8798;51.938;4.348;2022-09-23T08:30:53;102254.19;;;17.24;67.70
17362;BME280;8798;51.938;4.348;2022-09-23T08:33:22;102255.53;;;17.28;67.87
17362;BME280;8798;51.938;4.348;2022-09-23T08:36:02;102253.53;;;17.30;67.62
17362;BME280;8798;51.938;4.348;2022-09-23T08:38:33;102251.50;;;17.32;67.60
17362;BME280;8798;51.938;4.348;2022-09-23T08:41:07;102248.66;;;17.33;67.32
17362;BME280;8798;51.938;4.348;2022-09-23T08:43:48;102243.03;;;17.35;67.34
17362;BME280;8798;51.938;4.348;2022-09-23T08:46:37;102238.28;;;17.37;67.44
17362;BME280;8798;51.938;4.348;2022-09-23T08:49:18;102246.09;;;17.40;67.29
17362;BME280;8798;51.938;4.348;2022-09-23T08:51:55;102248.50;;;17.43;67.34
17362;BME280;8798;51.938;4.348;2022-09-23T08:54:30;102259.75;;;17.48;67.29
17362;BME280;8798;51.938;4.348;2022-09-23T08:57:04;102262.13;;;17.51;67.25
17362;BME280;8798;51.938;4.348;2022-09-23T08:59:42;102260.78;;;17.55;67.39
17362;BME280;8798;51.938;4.348;2022-09-23T09:02:16;102267.75;;;17.58;67.14
17362;BME280;8798;51.938;4.348;2022-09-23T09:04:53;102259.44;;;17.59;66.86
17362;BME280;8798;51.938;4.348;2022-09-23T09:07:34;102261.00;;;17.62;67.00
17362;BME280;8798;51.938;4.348;2022-09-23T09:10:24;102260.00;;;17.63;67.15
17362;BME280;8798;51.938;4.348;2022-09-23T09:13:05;102248.78;;;17.66;67.09
17362;BME280;8798;51.938;4.348;2022-09-23T09:16:08;102255.75;;;17.69;66.79
17362;BME280;8798;51.938;4.348;2022-09-23T09:18:49;102244.69;;;17.70;67.00
17362;BME280;8798;51.938;4.348;2022-09-23T09:21:33;102238.28;;;17.71;66.90
17362;BME280;8798;51.938;4.348;2022-09-23T09:24:25;102239.81;;;17.74;67.12
17362;BME280;8798;51.938;4.348;2022-09-23T09:27:12;102237.78;;;17.76;66.99
17362;BME280;8798;51.938;4.348;2022-09-23T09:29:43;102241.19;;;17.78;66.81
17362;BME280;8798;51.938;4.348;2022-09-23T09:32:23;102249.72;;;17.83;66.55
17362;BME280;8798;51.938;4.348;2022-09-23T09:35:07;102264.53;;;17.89;66.82
17362;BME280;8798;51.938;4.348;2022-09-23T09:37:45;102280.16;;;17.95;66.64
17362;BME280;8798;51.938;4.348;2022-09-23T09:40:22;102288.69;;;18.00;66.79
17362;BME280;8798;51.938;4.348;2022-09-23T09:42:58;102296.34;;;18.04;66.62
17362;BME280;8798;51.938;4.348;2022-09-23T09:45:52;102310.16;;;18.11;66.61
17362;BME280;8798;51.938;4.348;2022-09-23T09:48:53;102332.09;;;18.18;66.73
17362;BME280;8798;51.938;4.348;2022-09-23T09:51:25;102337.91;;;18.23;66.71
17362;BME280;8798;51.938;4.348;2022-09-23T09:54:19;102341.81;;;18.29;66.41
17362;BME280;8798;51.938;4.348;2022-09-23T09:56:52;102344.19;;;18.32;66.58
17362;BME280;8798;51.938;4.348;2022-09-23T09:59:26;102349.50;;;18.33;66.53
17362;BME280;8798;51.938;4.348;2022-09-23T10:02:18;102332.13;;;18.34;66.56
17362;BME280;8798;51.938;4.348;2022-09-23T10:04:57;102321.25;;;18.34;66.35
17362;BME280;8798;51.938;4.348;2022-09-23T10:07:28;102306.81;;;18.34;66.34
17362;BME280;8798;51.938;4.348;2022-09-23T10:09:56;102308.34;;;18.36;66.17
17362;BME280;8798;51.938;4.348;2022-09-23T10:12:54;102309.72;;;18.40;66.08
17362;BME280;8798;51.938;4.348;2022-09-23T10:15:32;102309.22;;;18.45;66.01
17362;BME280;8798;51.938;4.348;2022-09-23T10:18:28;102322.31;;;18.50;66.16
17362;BME280;8798;51.938;4.348;2022-09-23T10:21:06;102329.97;;;18.54;66.10
17362;BME280;8798;51.938;4.348;2022-09-23T10:23:39;102328.78;;;18.57;66.18
17362;BME280;8798;51.938;4.348;2022-09-23T10:26:10;102326.75;;;18.59;66.26
17362;BME280;8798;51.938;4.348;2022-09-23T10:28:46;102326.59;;;18.60;66.17
17362;BME280;8798;51.938;4.348;2022-09-23T10:31:25;102327.09;;;18.64;65.88
17362;BME280;8798;51.938;4.348;2022-09-23T10:34:04;102316.88;;;18.66;65.79
17362;BME280;8798;51.938;4.348;2022-09-23T10:37:05;102324.69;;;18.69;65.83
17362;BME280;8798;51.938;4.348;2022-09-23T10:39:42;102325.03;;;18.74;66.01
17362;BME280;8798;51.938;4.348;2022-09-23T10:42:52;102332.59;;;18.80;65.70
17362;BME280;8798;51.938;4.348;2022-09-23T10:46:02;102334.13;;;18.83;65.95
17362;BME280;8798;51.938;4.348;2022-09-23T10:48:59;102336.16;;;18.89;65.68
17362;BME280;8798;51.938;4.348;2022-09-23T10:51:46;102343.81;;;18.94;65.62
17362;BME280;8798;51.938;4.348;2022-09-23T10:54:34;102347.91;;;18.98;65.82
17362;BME280;8798;51.938;4.348;2022-09-23T10:57:18;102356.41;;;19.03;65.74
17362;BME280;8798;51.938;4.348;2022-09-23T11:00:28;102355.22;;;19.05;65.60
17362;BME280;8798;51.938;4.348;2022-09-23T11:03:44;102358.47;;;19.09;65.52
17362;BME280;8798;51.938;4.348;2022-09-23T11:06:33;102347.91;;;19.14;65.39
17362;BME280;8798;51.938;4.348;2022-09-23T11:09:23;102365.59;;;19.18;65.38
17362;BME280;8798;51.938;4.348;2022-09-23T11:12:14;102376.69;;;19.25;65.24
17362;BME280;8798;51.938;4.348;2022-09-23T11:15:16;102392.16;;;19.32;65.28
17362;BME280;8798;51.938;4.348;2022-09-23T11:18:17;102381.97;;;19.34;65.34
17362;BME280;8798;51.938;4.348;2022-09-23T11:20:58;102385.38;;;19.37;65.05
17362;BME280;8798;51.938;4.348;2022-09-23T11:23:58;102386.69;;;19.41;65.11
17362;BME280;8798;51.938;4.348;2022-09-23T11:26:39;102377.31;;;19.43;65.08
17362;BME280;8798;51.938;4.348;2022-09-23T11:29:26;102369.16;;;19.43;65.02
17362;BME280;8798;51.938;4.348;2022-09-23T11:32:18;102360.66;;;19.46;65.06
17362;BME280;8798;51.938;4.348;2022-09-23T11:35:01;102371.88;;;19.51;64.88
17362;BME280;8798;51.938;4.348;2022-09-23T11:37:33;102388.56;;;19.57;64.81
17362;BME280;8798;51.938;4.348;2022-09-23T11:40:05;102384.47;;;19.61;64.99
17362;BME280;8798;51.938;4.348;2022-09-23T11:42:46;102379.53;;;19.64;64.79
17362;BME280;8798;51.938;4.348;2022-09-23T11:45:21;102399.66;;;19.71;64.94
17362;BME280;8798;51.938;4.348;2022-09-23T11:47:55;102414.31;;;19.79;64.85
17362;BME280;8798;51.938;4.348;2022-09-23T11:50:27;102441.53;;;19.87;64.76
17362;BME280;8798;51.938;4.348;2022-09-23T11:53:02;102444.59;;;19.92;64.82
17362;BME280;8798;51.938;4.348;2022-09-23T11:55:34;102463.66;;;20.00;64.73
17362;BME280;8798;51.938;4.348;2022-09-23T11:58:25;102493.31;;;20.11;64.80
17362;BME280;8798;51.938;4.348;2022-09-23T12:01:02;102512.25;;;20.21;64.69
17362;BME280;8798;51.938;4.348;2022-09-23T12:03:39;102546.50;;;20.32;64.50
17362;BME280;8798;51.938;4.348;2022-09-23T12:06:13;102547.00;;;20.35;64.50
17362;BME280;8798;51.938;4.348;2022-09-23T12:08:43;102542.88;;;20.39;64.46
17362;BME280;8798;51.938;4.348;2022-09-23T12:11:20;102530.97;;;20.40;64.55
17362;BME280;8798;51.938;4.348;2022-09-23T12:13:57;102500.41;;;20.37;64.46
17362;BME280;8798;51.938;4.348;2022-09-23T12:16:49;102493.75;;;20.39;64.26
17362;BME280;8798;51.938;4.348;2022-09-23T12:19:38;102473.78;;;20.39;64.31
17362;BME280;8798;51.938;4.348;2022-09-23T12:22:20;102453.00;;;20.38;63.92
17362;BME280;8798;51.938;4.348;2022-09-23T12:25:10;102441.88;;;20.39;64.20
17362;BME280;8798;51.938;4.348;2022-09-23T12:27:46;102414.78;;;20.38;64.30
17362;BME280;8798;51.938;4.348;2022-09-23T12:30:17;102399.41;;;20.37;64.26
17362;BME280;8798;51.938;4.348;2022-09-23T12:32:46;102373.31;;;20.34;64.13
17362;BME280;8798;51.938;4.348;2022-09-23T12:35:19;102346.22;;;20.33;64.13
17362;BME280;8798;51.938;4.348;2022-09-23T12:37:48;102322.84;;;20.30;64.21
17362;BME280;8798;51.938;4.348;2022-09-23T12:40:21;102303.91;;;20.29;63.93
17362;BME280;8798;51.938;4.348;2022-09-23T12:42:50;102310.06;;;20.31;64.10
17362;BME280;8798;51.938;4.348;2022-09-23T12:45:40;102305.28;;;20.33;64.02
17362;BME280;8798;51.938;4.348;2022-09-23T12:51:15;102281.34;;;20.35;64.12
17362;BME280;8798;51.938;4.348;2022-09-23T12:54:14;102271.31;;;20.35;64.09
17362;BME280;8798;51.938;4.348;2022-09-23T12:57:00;102259.50;;;20.35;63.92
17362;BME280;8798;51.938;4.348;2022-09-23T12:59:30;102258.28;;;20.37;64.26
17362;BME280;8798;51.938;4.348;2022-09-23T13:02:25;102272.06;;;20.44;64.07
17362;BME280;8798;51.938;4.348;2022-09-23T13:05:03;102285.84;;;20.51;64.07
17362;BME280;8798;51.938;4.348;2022-09-23T13:07:49;102286.31;;;20.54;64.19
17362;BME280;8798;51.938;4.348;2022-09-23T13:10:23;102286.88;;;20.58;64.13
17362;BME280;8798;51.938;4.348;2022-09-23T13:12:55;102280.34;;;20.59;64.11
17362;BME280;8798;51.938;4.348;2022-09-23T13:15:28;102274.06;;;20.58;64.03
17362;BME280;8798;51.938;4.348;2022-09-23T13:18:24;102262.09;;;20.59;64.13
17362;BME280;8798;51.938;4.348;2022-09-23T13:21:17;102237.88;;;20.56;63.93
17362;BME280;8798;51.938;4.348;2022-09-23T13:24:15;102207.34;;;20.53;64.25
17362;BME280;8798;51.938;4.348;2022-09-23T13:26:44;102176.16;;;20.47;64.17
17362;BME280;8798;51.938;4.348;2022-09-23T13:29:18;102169.66;;;20.48;64.10
17362;BME280;8798;51.938;4.348;2022-09-23T13:31:46;102141.69;;;20.46;63.90
17362;BME280;8798;51.938;4.348;2022-09-23T13:34:15;102122.97;;;20.43;64.12
17362;BME280;8798;51.938;4.348;2022-09-23T13:36:47;102097.91;;;20.39;64.08
17362;BME280;8798;51.938;4.348;2022-09-23T13:39:15;102074.75;;;20.35;64.14
17362;BME280;8798;51.938;4.348;2022-09-23T13:41:46;102054.16;;;20.33;64.08
17362;BME280;8798;51.938;4.348;2022-09-23T13:44:17;102048.88;;;20.31;64.19
17362;BME280;8798;51.938;4.348;2022-09-23T13:46:55;102015.44;;;20.29;64.19
17362;BME280;8798;51.938;4.348;2022-09-23T13:49:33;101997.56;;;20.27;64.06
17362;BME280;8798;51.938;4.348;2022-09-23T13:52:03;101999.28;;;20.28;64.31
17362;BME280;8798;51.938;4.348;2022-09-23T13:54:33;101983.75;;;20.28;64.32
17362;BME280;8798;51.938;4.348;2022-09-23T13:57:03;101980.16;;;20.28;64.50
17362;BME280;8798;51.938;4.348;2022-09-23T13:59:39;101971.97;;;20.28;64.43
17362;BME280;8798;51.938;4.348;2022-09-23T14:02:14;101950.72;;;20.23;64.32